createdAt,value
2022-10-05T00:00:56.203Z,87.15
2022-10-05T00:03:26.045Z,87.42
2022-10-05T00:05:53.996Z,87.41
2022-10-05T00:08:27.609Z,87.45
2022-10-05T00:10:54.418Z,87.81
2022-10-05T00:13:27.503Z,87.68
2022-10-05T00:16:19.381Z,87.88
2022-10-05T00:18:50.718Z,87.76
2022-10-05T00:21:26.106Z,87.81
2022-10-05T00:23:56.590Z,88.04
2022-10-05T00:26:27.037Z,88.17
2022-10-05T00:28:54.850Z,88.13
2022-10-05T00:31:30.161Z,88.33
2022-10-05T00:33:57.882Z,87.93
2022-10-05T00:36:26.412Z,88.53
2022-10-05T00:38:54.615Z,88.65
2022-10-05T00:41:35.157Z,88.47
2022-10-05T00:44:38.562Z,88.21
2022-10-05T00:47:26.624Z,88.27
2022-10-05T00:50:38.401Z,88.38
2022-10-05T00:53:45.489Z,88.23
2022-10-05T00:56:30.201Z,88.18
2022-10-05T00:59:40.244Z,88.26
2022-10-05T01:02:15.908Z,88.30
2022-10-05T01:05:18.034Z,88.18
2022-10-05T01:08:30.019Z,88.39
2022-10-05T01:11:09.918Z,87.85
2022-10-05T01:13:45.751Z,87.95
2022-10-05T01:16:36.558Z,87.57
2022-10-05T01:19:19.393Z,87.68
2022-10-05T01:22:28.249Z,87.68
2022-10-05T01:25:51.819Z,87.52
2022-10-05T01:28:21.623Z,87.45
2022-10-05T01:31:01.912Z,87.47
2022-10-05T01:33:41.493Z,87.70
2022-10-05T01:36:59.316Z,87.44
2022-10-05T01:39:46.239Z,87.44
2022-10-05T01:42:41.680Z,87.29
2022-10-05T01:45:26.561Z,87.07
2022-10-05T01:48:09.066Z,87.02
2022-10-05T01:50:58.138Z,87.08
2022-10-05T01:54:15.565Z,87.06
2022-10-05T01:57:12.804Z,87.03
2022-10-05T02:00:18.148Z,87.20
2022-10-05T02:02:56.480Z,87.15
2022-10-05T02:05:55.021Z,86.96
2022-10-05T02:08:33.950Z,87.12
2022-10-05T02:11:09.125Z,87.19
2022-10-05T02:14:00.724Z,87.02
2022-10-05T02:16:40.717Z,87.05
2022-10-05T02:19:29.367Z,87.00
2022-10-05T02:22:08.617Z,86.88
2022-10-05T02:24:43.181Z,86.87
2022-10-05T02:27:15.789Z,87.07
2022-10-05T02:29:47.446Z,86.83
2022-10-05T02:32:22.682Z,86.79
2022-10-05T02:34:50.121Z,86.87
2022-10-05T02:37:44.053Z,86.89
2022-10-05T02:40:50.514Z,86.99
2022-10-05T02:43:24.638Z,86.95
2022-10-05T02:46:31.276Z,87.08
2022-10-05T02:49:36.315Z,86.97
2022-10-05T02:53:14.856Z,87.20
2022-10-05T02:56:21.650Z,87.34
2022-10-05T02:59:18.033Z,86.92
2022-10-05T03:01:48.828Z,87.12
2022-10-05T03:04:34.774Z,87.42
2022-10-05T03:07:16.269Z,87.11
2022-10-05T03:10:00.931Z,87.30
2022-10-05T03:12:52.752Z,87.23
2022-10-05T03:15:38.297Z,87.09
2022-10-05T03:18:32.513Z,87.30
2022-10-05T03:21:29.002Z,87.51
2022-10-05T03:24:28.865Z,87.49
2022-10-05T03:27:17.563Z,87.71
2022-10-05T03:30:27.789Z,88.00
2022-10-05T03:33:10.691Z,87.78
2022-10-05T03:35:55.103Z,88.12
2022-10-05T03:38:36.802Z,88.07
2022-10-05T03:41:23.874Z,87.95
2022-10-05T03:44:16.190Z,88.11
2022-10-05T03:46:49.406Z,88.67
2022-10-05T03:49:37.396Z,88.40
2022-10-05T03:52:17.933Z,88.32
2022-10-05T03:55:04.270Z,88.41
2022-10-05T03:57:37.627Z,88.55
2022-10-05T04:00:18.015Z,88.68
2022-10-05T04:03:06.043Z,88.72
2022-10-05T04:05:41.515Z,89.06
2022-10-05T04:08:18.772Z,88.76
2022-10-05T04:10:58.738Z,88.84
2022-10-05T04:13:41.717Z,88.80
2022-10-05T04:16:28.299Z,88.99
2022-10-05T04:19:04.299Z,88.87
2022-10-05T04:21:44.811Z,89.09
2022-10-05T04:24:19.420Z,89.14
2022-10-05T04:27:01.819Z,89.45
2022-10-05T04:29:48.786Z,89.17
2022-10-05T04:32:36.277Z,89.32
2022-10-05T04:35:38.324Z,89.21
2022-10-05T04:38:58.097Z,89.51
2022-10-05T04:41:56.260Z,89.61
2022-10-05T04:44:45.208Z,90.11
2022-10-05T04:47:58.550Z,90.06
2022-10-05T04:51:02.970Z,90.21
2022-10-05T04:53:44.719Z,90.73
2022-10-05T04:56:36.789Z,90.66
2022-10-05T04:59:36.712Z,91.14
2022-10-05T05:02:17.853Z,91.08
2022-10-05T05:05:23.970Z,91.21
2022-10-05T05:08:07.069Z,91.24
2022-10-05T05:11:24.980Z,91.60
2022-10-05T05:14:42.331Z,91.61
2022-10-05T05:17:25.618Z,92.19
2022-10-05T05:20:31.882Z,91.97
2022-10-05T05:23:21.501Z,92.43
2022-10-05T05:26:30.160Z,92.12
2022-10-05T05:29:27.877Z,92.38
2022-10-05T05:32:04.037Z,92.27
2022-10-05T05:34:49.130Z,92.31
2022-10-05T05:38:13.462Z,92.75
2022-10-05T05:41:11.969Z,92.49
2022-10-05T05:44:12.910Z,92.52
2022-10-05T05:47:04.448Z,92.34
2022-10-05T05:49:44.288Z,92.53
2022-10-05T05:52:20.578Z,92.63
2022-10-05T05:54:58.085Z,92.18
2022-10-05T05:57:48.906Z,92.04
2022-10-05T06:00:31.216Z,92.03
2022-10-05T06:03:08.538Z,92.05
2022-10-05T06:06:14.634Z,91.81
2022-10-05T06:08:42.935Z,91.90
2022-10-05T06:11:46.258Z,92.16
2022-10-05T06:14:25.555Z,92.04
2022-10-05T06:17:14.478Z,92.00
2022-10-05T06:19:42.962Z,92.08
2022-10-05T06:22:26.125Z,91.85
2022-10-05T06:25:15.242Z,91.72
2022-10-05T06:28:11.535Z,91.95
2022-10-05T06:30:52.407Z,91.88
2022-10-05T06:33:48.119Z,91.84
2022-10-05T06:36:32.650Z,91.50
2022-10-05T06:39:27.270Z,91.49
2022-10-05T06:42:44.581Z,91.37
2022-10-05T06:45:56.761Z,91.40
2022-10-05T06:48:44.805Z,91.35
2022-10-05T06:51:24.152Z,91.19
2022-10-05T06:54:12.617Z,91.05
2022-10-05T06:57:03.893Z,91.06
2022-10-05T06:59:53.972Z,90.58
2022-10-05T07:02:46.601Z,90.63
2022-10-05T07:05:54.366Z,90.43
2022-10-05T07:08:34.094Z,90.63
2022-10-05T07:11:24.016Z,90.46
2022-10-05T07:13:56.622Z,90.38
2022-10-05T07:16:47.555Z,90.43
2022-10-05T07:19:44.627Z,90.54
2022-10-05T07:22:33.408Z,90.63
2022-10-05T07:25:36.922Z,90.78
2022-10-05T07:28:12.366Z,91.05
2022-10-05T07:31:05.579Z,90.97
2022-10-05T07:33:49.270Z,91.02
2022-10-05T07:36:41.434Z,91.11
2022-10-05T07:39:36.811Z,91.06
2022-10-05T07:43:00.177Z,91.14
2022-10-05T07:45:34.825Z,91.22
2022-10-05T07:48:39.745Z,91.51
2022-10-05T07:51:18.062Z,91.68
2022-10-05T07:54:16.319Z,91.67
2022-10-05T07:56:50.903Z,92.25
2022-10-05T07:59:54.503Z,92.38
2022-10-05T08:02:50.002Z,92.76
2022-10-05T08:05:51.690Z,93.09
2022-10-05T08:08:54.131Z,93.57
2022-10-05T08:12:34.944Z,93.78
2022-10-05T08:15:33.931Z,94.19
2022-10-05T08:18:11.854Z,93.77
2022-10-05T08:20:50.909Z,93.96
2022-10-05T08:24:05.558Z,94.03
2022-10-05T08:27:07.597Z,94.14
2022-10-05T08:29:58.566Z,94.04
2022-10-05T08:32:56.070Z,94.26
2022-10-05T08:35:34.541Z,93.77
2022-10-05T08:38:28.214Z,93.78
2022-10-05T08:41:34.454Z,93.84
2022-10-05T08:44:13.772Z,93.96
2022-10-05T08:47:08.846Z,93.86
2022-10-05T08:50:18.930Z,93.09
2022-10-05T08:53:40.760Z,92.77
2022-10-05T08:56:35.953Z,92.58
2022-10-05T08:59:25.152Z,91.94
2022-10-05T09:02:33.826Z,91.74
2022-10-05T09:05:35.300Z,92.12
2022-10-05T09:08:45.909Z,92.36
2022-10-05T09:12:01.627Z,92.42
2022-10-05T09:15:26.458Z,92.74
2022-10-05T09:18:45.091Z,93.11
2022-10-05T09:21:40.516Z,92.94
2022-10-05T09:24:24.507Z,92.86
2022-10-05T09:27:11.366Z,92.35
2022-10-05T09:30:58.192Z,92.12
2022-10-05T09:34:37.597Z,91.69
2022-10-05T09:37:21.225Z,91.62
2022-10-05T09:40:31.069Z,91.59
2022-10-05T09:44:15.340Z,91.26
2022-10-05T09:46:55.184Z,91.47
2022-10-05T09:52:58.302Z,92.93
2022-10-05T09:56:05.605Z,92.22
2022-10-05T09:58:45.098Z,92.14
2022-10-05T10:01:57.568Z,91.81
2022-10-05T10:05:06.276Z,92.22
2022-10-05T10:07:58.574Z,92.26
2022-10-05T10:10:55.309Z,92.19
2022-10-05T10:14:13.304Z,92.64
2022-10-05T10:17:17.285Z,93.04
2022-10-05T10:20:14.880Z,85.83
2022-10-05T10:23:15.267Z,83.76
2022-10-05T10:26:40.837Z,82.03
2022-10-05T10:29:52.327Z,84.17
2022-10-05T10:33:01.050Z,84.98
2022-10-05T10:36:20.945Z,85.81
2022-10-05T10:39:52.915Z,87.57
2022-10-05T10:42:43.720Z,87.52
2022-10-05T10:45:57.294Z,88.40
2022-10-05T10:49:07.624Z,88.87
2022-10-05T10:52:13.099Z,89.37
2022-10-05T10:55:06.610Z,89.04
2022-10-05T10:59:00.223Z,88.73
2022-10-05T11:02:19.962Z,88.13
2022-10-05T11:05:11.634Z,88.45
2022-10-05T11:08:54.739Z,88.46
2022-10-05T11:12:35.034Z,88.83
2022-10-05T11:15:43.366Z,88.74
2022-10-05T11:18:32.107Z,88.99
2022-10-05T11:21:23.451Z,90.06
2022-10-05T11:24:40.077Z,90.02
2022-10-05T11:27:18.259Z,90.34
2022-10-05T11:30:07.299Z,89.47
2022-10-05T11:33:21.423Z,89.89
2022-10-05T11:35:51.826Z,90.24
2022-10-05T11:39:22.413Z,90.48
2022-10-05T11:42:25.213Z,90.61
2022-10-05T11:45:18.542Z,90.48
2022-10-05T11:48:19.266Z,90.38
2022-10-05T11:50:58.075Z,90.43
2022-10-05T11:53:39.953Z,90.03
2022-10-05T11:57:08.713Z,89.84
2022-10-05T11:59:44.354Z,89.60
2022-10-05T12:02:51.599Z,89.00
2022-10-05T12:05:43.742Z,89.35
2022-10-05T12:08:24.151Z,89.25
2022-10-05T12:11:30.084Z,89.32
2022-10-05T12:14:24.694Z,89.21
2022-10-05T12:17:02.083Z,89.12
2022-10-05T12:19:39.473Z,88.35
2022-10-05T12:22:27.955Z,88.49
2022-10-05T12:25:17.461Z,87.97
2022-10-05T12:27:52.414Z,87.73
2022-10-05T12:30:49.398Z,87.63
2022-10-05T12:33:36.001Z,87.64
2022-10-05T12:36:46.295Z,87.61
2022-10-05T12:43:58.151Z,87.27
2022-10-05T12:47:25.072Z,87.26
2022-10-05T12:50:09.341Z,87.44
2022-10-05T13:15:20.043Z,84.22
2022-10-05T13:18:19.406Z,84.33
2022-10-05T13:21:22.551Z,83.28
2022-10-05T13:24:07.188Z,82.11
2022-10-05T13:26:48.787Z,82.60
2022-10-05T13:29:44.187Z,83.11
2022-10-05T13:32:54.746Z,82.55
2022-10-05T13:35:32.528Z,81.52
2022-10-05T13:38:25.440Z,80.74
2022-10-05T13:41:17.411Z,80.34
2022-10-05T13:43:58.725Z,80.81
2022-10-05T13:46:43.432Z,81.00
2022-10-05T13:49:36.514Z,80.82
2022-10-05T13:52:22.502Z,79.96
2022-10-05T13:55:21.526Z,80.14
2022-10-05T13:58:20.987Z,80.06
2022-10-05T14:00:58.392Z,80.05
2022-10-05T14:03:31.238Z,79.45
2022-10-05T14:06:03.850Z,78.82
2022-10-05T14:08:52.213Z,78.94
2022-10-05T14:11:35.362Z,78.90
2022-10-05T14:14:28.369Z,79.04
2022-10-05T14:19:52.032Z,77.25
2022-10-05T14:22:22.570Z,77.98
2022-10-05T14:25:06.542Z,78.09
2022-10-05T14:28:03.268Z,78.40
2022-10-05T14:30:33.265Z,77.76
2022-10-05T14:33:06.395Z,77.57
2022-10-05T14:35:52.982Z,76.35
2022-10-05T14:38:35.829Z,77.31
2022-10-05T14:41:27.801Z,76.58
2022-10-05T14:44:05.635Z,75.93
2022-10-05T14:46:35.553Z,76.42
2022-10-05T14:49:13.640Z,74.84
2022-10-05T14:51:42.622Z,74.02
2022-10-05T14:54:28.166Z,73.39
2022-10-05T14:56:59.990Z,72.04
2022-10-05T14:59:53.939Z,71.50
2022-10-05T15:02:57.964Z,70.71
2022-10-05T15:05:49.428Z,71.88
2022-10-05T15:08:45.521Z,71.72
2022-10-05T15:11:50.894Z,72.46
2022-10-05T15:14:42.767Z,71.97
2022-10-05T15:17:19.845Z,71.13
2022-10-05T15:20:06.421Z,71.99
2022-10-05T15:22:50.678Z,71.61
2022-10-05T15:25:27.235Z,71.67
2022-10-05T15:28:36.116Z,72.36
2022-10-05T15:31:40.323Z,72.23
2022-10-05T15:34:21.439Z,72.07
2022-10-05T15:37:08.168Z,72.13
2022-10-05T15:39:49.916Z,70.17
2022-10-05T15:42:20.569Z,71.43
2022-10-05T15:45:19.525Z,71.76
2022-10-05T15:48:00.170Z,71.55
2022-10-05T15:50:56.043Z,71.84
2022-10-05T15:54:23.506Z,71.16
2022-10-05T15:57:11.339Z,70.33
2022-10-05T16:00:12.661Z,70.34
2022-10-05T16:03:13.432Z,69.10
2022-10-05T16:06:11.659Z,68.72
2022-10-05T16:09:06.379Z,68.28
2022-10-05T16:11:51.714Z,67.82
2022-10-05T16:15:06.806Z,66.84
2022-10-05T16:17:48.893Z,65.98
2022-10-05T16:21:03.599Z,66.44
2022-10-05T16:23:49.281Z,67.05
2022-10-05T16:26:29.350Z,67.28
2022-10-05T16:29:19.030Z,67.44
2022-10-05T16:32:00.737Z,66.56
2022-10-05T16:35:35.491Z,67.11
2022-10-05T16:38:25.098Z,67.32
2022-10-05T16:41:03.969Z,66.93
2022-10-05T16:43:52.614Z,67.32
2022-10-05T16:46:38.486Z,67.56
2022-10-05T16:49:33.059Z,67.94
2022-10-05T16:52:01.424Z,68.61
2022-10-05T16:54:47.949Z,69.06
2022-10-05T16:57:25.293Z,69.52
2022-10-05T17:00:16.696Z,69.44
2022-10-05T17:03:25.172Z,69.44
2022-10-05T17:06:24.341Z,69.49
2022-10-05T17:09:29.408Z,70.06
2022-10-05T17:11:59.010Z,69.39
2022-10-05T17:14:44.092Z,70.59
2022-10-05T17:17:44.937Z,70.27
2022-10-05T17:20:29.921Z,70.60
2022-10-05T17:23:18.522Z,71.21
2022-10-05T17:25:53.653Z,71.06
2022-10-05T17:28:21.197Z,70.92
2022-10-05T17:30:54.351Z,70.56
2022-10-05T17:33:31.545Z,70.40
2022-10-05T17:36:08.699Z,71.42
2022-10-05T17:38:35.711Z,71.18
2022-10-05T17:41:31.428Z,71.04
2022-10-05T17:44:16.469Z,71.39
2022-10-05T17:46:46.414Z,71.45
2022-10-05T17:49:23.059Z,71.34
2022-10-05T17:52:11.894Z,71.21
2022-10-05T17:55:04.175Z,70.95
2022-10-05T17:57:32.940Z,70.72
2022-10-05T18:00:41.177Z,70.81
2022-10-05T18:03:43.777Z,70.74
2022-10-05T18:06:26.061Z,69.78
2022-10-05T18:09:36.233Z,68.83
2022-10-05T18:12:25.613Z,68.93
2022-10-05T18:15:07.732Z,68.97
2022-10-05T18:17:50.826Z,69.03
2022-10-05T18:20:32.043Z,69.29
2022-10-05T18:23:09.533Z,68.98
2022-10-05T18:25:48.891Z,69.02
2022-10-05T18:28:44.381Z,69.49
2022-10-05T18:31:25.045Z,69.91
2022-10-05T18:34:13.664Z,69.83
2022-10-05T18:37:36.455Z,70.00
2022-10-05T18:40:26.829Z,69.88
2022-10-05T18:43:18.377Z,69.69
2022-10-05T18:45:58.971Z,70.18
2022-10-05T18:48:49.600Z,69.92
2022-10-05T18:52:00.975Z,70.15
2022-10-05T18:54:49.049Z,70.06
2022-10-05T18:57:57.479Z,70.83
2022-10-05T19:00:26.411Z,71.02
2022-10-05T19:03:03.009Z,70.91
2022-10-05T19:05:59.301Z,71.03
2022-10-05T19:08:49.806Z,71.47
2022-10-05T19:11:30.071Z,71.62
2022-10-05T19:14:15.111Z,72.06
2022-10-05T19:17:12.344Z,72.19
2022-10-05T19:20:14.373Z,72.09
2022-10-05T19:23:18.360Z,72.07
2022-10-05T19:26:17.672Z,71.69
2022-10-05T19:29:22.846Z,71.94
2022-10-05T19:32:05.719Z,71.83
2022-10-05T19:35:11.570Z,71.86
2022-10-05T19:38:05.981Z,71.95
2022-10-05T19:41:06.577Z,72.16
2022-10-05T19:43:58.588Z,72.20
2022-10-05T19:47:10.333Z,72.86
2022-10-05T19:49:49.868Z,73.23
2022-10-05T19:52:45.214Z,73.38
2022-10-05T19:55:26.586Z,73.66
2022-10-05T19:57:56.626Z,74.23
2022-10-05T20:00:32.833Z,74.80
2022-10-05T20:03:19.915Z,75.23
2022-10-05T20:05:48.625Z,75.14
2022-10-05T20:08:20.619Z,75.67
2022-10-05T20:11:07.772Z,76.61
2022-10-05T20:13:36.005Z,76.26
2022-10-05T20:16:37.085Z,76.39
2022-10-05T20:19:44.621Z,77.13
2022-10-05T20:22:46.611Z,77.65
2022-10-05T20:25:37.202Z,77.11
2022-10-05T20:28:04.054Z,77.53
2022-10-05T20:30:33.950Z,77.51
2022-10-05T20:33:10.956Z,77.73
2022-10-05T20:35:38.061Z,78.18
2022-10-05T20:38:04.875Z,78.19
2022-10-05T20:40:32.015Z,78.33
2022-10-05T20:42:59.238Z,78.26
2022-10-05T20:45:26.661Z,78.41
2022-10-05T20:47:53.567Z,78.75
2022-10-05T20:50:22.370Z,78.96
2022-10-05T20:52:49.253Z,78.81
2022-10-05T20:55:16.338Z,78.75
2022-10-05T20:57:43.426Z,78.73
2022-10-05T21:00:12.853Z,78.62
2022-10-05T21:02:40.272Z,78.66
2022-10-05T21:05:08.190Z,78.75
2022-10-05T21:07:35.461Z,78.86
2022-10-05T21:10:03.925Z,78.81
2022-10-05T21:12:31.024Z,79.10
2022-10-05T21:14:59.805Z,79.03
2022-10-05T21:17:26.913Z,78.97
2022-10-05T21:19:54.045Z,79.43
2022-10-05T21:22:20.851Z,79.18
2022-10-05T21:24:48.601Z,79.43
2022-10-05T21:27:15.770Z,79.16
2022-10-05T21:29:44.251Z,79.87
2022-10-05T21:32:12.059Z,79.56
2022-10-05T21:34:40.831Z,79.58
2022-10-05T21:37:08.830Z,79.74
2022-10-05T21:39:36.864Z,79.68
2022-10-05T21:42:04.622Z,79.90
2022-10-05T21:44:31.537Z,80.04
2022-10-05T21:46:58.585Z,80.18
2022-10-05T21:49:26.775Z,80.04
2022-10-05T21:51:54.586Z,79.84
2022-10-05T21:54:23.309Z,80.36
2022-10-05T21:56:54.293Z,80.58
2022-10-05T21:59:24.947Z,80.31
2022-10-05T22:01:51.982Z,80.38
2022-10-05T22:04:19.268Z,80.57
2022-10-05T22:06:46.501Z,80.64
2022-10-05T22:09:13.514Z,80.71
2022-10-05T22:11:40.379Z,80.66
2022-10-05T22:14:07.297Z,80.83
2022-10-05T22:16:37.549Z,80.73
2022-10-05T22:19:07.462Z,80.68
2022-10-05T22:21:41.750Z,80.87
2022-10-05T22:24:10.656Z,81.01
2022-10-05T22:26:38.744Z,80.98
2022-10-05T22:29:05.626Z,80.99
2022-10-05T22:31:32.575Z,80.88
2022-10-05T22:33:59.841Z,81.36
2022-10-05T22:36:27.222Z,81.61
2022-10-05T22:38:55.179Z,81.50
2022-10-05T22:41:22.070Z,81.56
2022-10-05T22:43:50.533Z,81.72
2022-10-05T22:46:18.827Z,81.84
2022-10-05T22:48:45.802Z,82.19
2022-10-05T22:51:12.778Z,81.93
2022-10-05T22:53:40.297Z,82.15
2022-10-05T22:56:13.752Z,82.46
2022-10-05T22:58:42.276Z,82.58
2022-10-05T23:01:18.897Z,82.65
2022-10-05T23:03:46.484Z,82.63
2022-10-05T23:06:17.836Z,82.51
2022-10-05T23:08:46.140Z,82.93
2022-10-05T23:11:16.729Z,82.75
2022-10-05T23:13:51.256Z,82.71
2022-10-05T23:16:21.756Z,83.04
2022-10-05T23:18:51.033Z,82.85
2022-10-05T23:21:20.353Z,82.86
2022-10-05T23:23:49.378Z,82.89
2022-10-05T23:26:17.458Z,83.00
2022-10-05T23:28:48.264Z,82.76
2022-10-05T23:31:19.130Z,83.03
2022-10-05T23:33:46.118Z,82.92
2022-10-05T23:36:17.033Z,82.64
2022-10-05T23:38:44.468Z,82.75
2022-10-05T23:41:11.819Z,83.05
2022-10-05T23:43:39.275Z,82.89
2022-10-05T23:46:07.712Z,83.04
2022-10-05T23:48:38.135Z,82.90
2022-10-05T23:51:12.033Z,83.04
2022-10-05T23:53:38.874Z,82.95
2022-10-05T23:56:06.044Z,83.11
2022-10-05T23:58:32.989Z,83.08
